createdAt,value
2022-10-17T00:00:01.067Z,10.40
2022-10-17T00:00:13.980Z,11.02
2022-10-17T00:00:29.008Z,10.88
2022-10-17T00:00:42.276Z,11.07
2022-10-17T00:00:55.479Z,10.27
2022-10-17T00:01:08.389Z,10.10
2022-10-17T00:01:26.013Z,10.52
2022-10-17T00:01:55.153Z,10.20
2022-10-17T00:02:10.310Z,9.80
2022-10-17T00:02:43.062Z,11.60
2022-10-17T00:03:15.927Z,9.93
2022-10-17T00:03:28.858Z,10.38
2022-10-17T00:03:41.844Z,11.18
2022-10-17T00:03:55.038Z,11.93
2022-10-17T00:04:27.853Z,11.25
2022-10-17T00:05:00.544Z,12.93
2022-10-17T00:05:33.341Z,10.60
2022-10-17T00:05:47.215Z,10.15
2022-10-17T00:06:06.133Z,10.23
2022-10-17T00:06:18.953Z,10.50
2022-10-17T00:06:32.237Z,11.18
2022-10-17T00:06:45.497Z,12.10
2022-10-17T00:06:58.447Z,11.23
2022-10-17T00:07:11.274Z,10.48
2022-10-17T00:07:26.259Z,10.13
2022-10-17T00:07:39.793Z,10.45
2022-10-17T00:07:54.933Z,10.07
2022-10-17T00:08:09.451Z,10.63
2022-10-17T00:08:22.774Z,12.63
2022-10-17T00:08:36.996Z,12.60
2022-10-17T00:08:52.027Z,12.15
2022-10-17T00:09:07.020Z,12.70
2022-10-17T00:09:19.812Z,12.57
2022-10-17T00:09:32.659Z,12.23
2022-10-17T00:09:47.744Z,12.68
2022-10-17T00:10:00.970Z,12.02
2022-10-17T00:10:13.974Z,11.25
2022-10-17T00:10:34.924Z,12.73
2022-10-17T00:11:00.852Z,12.35
2022-10-17T00:11:33.600Z,11.27
2022-10-17T00:12:06.360Z,10.57
2022-10-17T00:12:39.128Z,10.85
2022-10-17T00:12:52.201Z,10.68
2022-10-17T00:13:11.036Z,10.68
2022-10-17T00:13:23.989Z,10.98
2022-10-17T00:13:36.872Z,11.05
2022-10-17T00:13:51.986Z,10.80
2022-10-17T00:14:04.844Z,11.10
2022-10-17T00:14:18.171Z,11.10
2022-10-17T00:14:30.975Z,11.15
2022-10-17T00:14:45.725Z,10.85
2022-10-17T00:15:19.349Z,10.82
2022-10-17T00:15:32.225Z,10.73
2022-10-17T00:15:45.258Z,11.05
2022-10-17T00:16:06.601Z,11.00
2022-10-17T00:17:02.577Z,12.05
2022-10-17T00:17:19.385Z,12.10
2022-10-17T00:17:32.411Z,11.07
2022-10-17T00:17:45.484Z,9.90
2022-10-17T00:17:59.423Z,9.57
2022-10-17T00:18:12.796Z,10.77
2022-10-17T00:18:25.960Z,11.32
2022-10-17T00:18:41.647Z,10.43
2022-10-17T00:19:10.733Z,11.52
2022-10-17T00:19:25.663Z,10.50
2022-10-17T00:19:46.652Z,10.27
2022-10-17T00:20:00.259Z,10.13
2022-10-17T00:20:35.533Z,10.82
2022-10-17T00:20:48.430Z,9.75
2022-10-17T00:21:20.524Z,10.20
2022-10-17T00:21:53.699Z,11.80
2022-10-17T00:22:06.556Z,11.20
2022-10-17T00:22:19.584Z,11.00
2022-10-17T00:22:52.579Z,10.43
2022-10-17T00:23:05.388Z,10.32
2022-10-17T00:23:18.581Z,9.80
2022-10-17T00:23:31.851Z,10.10
2022-10-17T00:23:45.357Z,11.63
2022-10-17T00:24:03.045Z,11.82
2022-10-17T00:24:15.969Z,10.05
2022-10-17T00:24:34.100Z,9.63
2022-10-17T00:25:07.252Z,9.60
2022-10-17T00:25:40.834Z,10.20
2022-10-17T00:26:04.998Z,10.00
2022-10-17T00:26:18.611Z,11.23
2022-10-17T00:26:31.528Z,11.30
2022-10-17T00:26:44.457Z,10.18
2022-10-17T00:26:57.634Z,9.63
2022-10-17T00:27:10.606Z,9.82
2022-10-17T00:27:23.937Z,11.35
2022-10-17T00:27:37.893Z,11.43
2022-10-17T00:27:50.892Z,10.40
2022-10-17T00:28:11.554Z,10.38
2022-10-17T00:28:28.570Z,10.63
2022-10-17T00:28:42.600Z,10.50
2022-10-17T00:28:56.652Z,10.75
2022-10-17T00:29:09.616Z,11.70
2022-10-17T00:29:23.416Z,12.30
2022-10-17T00:29:36.438Z,10.93
2022-10-17T00:29:50.272Z,10.65
2022-10-17T00:30:04.335Z,12.13
2022-10-17T00:30:17.236Z,11.82
2022-10-17T00:30:32.995Z,11.30
2022-10-17T00:30:45.845Z,12.02
2022-10-17T00:31:04.902Z,11.20
2022-10-17T00:31:37.642Z,11.48
2022-10-17T00:31:55.219Z,11.32
2022-10-17T00:32:28.277Z,10.57
2022-10-17T00:32:41.600Z,10.57
2022-10-17T00:33:14.570Z,11.00
2022-10-17T00:33:44.586Z,13.50
2022-10-17T00:34:06.530Z,10.90
2022-10-17T00:34:19.578Z,9.65
2022-10-17T00:34:36.289Z,10.80
2022-10-17T00:34:49.515Z,11.32
2022-10-17T00:35:07.708Z,11.20
2022-10-17T00:35:20.579Z,10.60
2022-10-17T00:35:33.765Z,10.95
2022-10-17T00:35:46.567Z,11.63
2022-10-17T00:36:18.860Z,11.48
2022-10-17T00:57:07.429Z,11.25
2022-10-17T00:57:20.236Z,10.63
2022-10-17T00:57:33.674Z,10.18
2022-10-17T00:57:48.420Z,10.75
2022-10-17T00:58:21.652Z,10.43
2022-10-17T00:58:36.547Z,10.73
2022-10-17T00:58:50.409Z,11.30
2022-10-17T00:59:03.780Z,11.55
2022-10-17T00:59:20.873Z,12.07
2022-10-17T00:59:34.455Z,11.52
2022-10-17T00:59:52.948Z,11.18
2022-10-17T01:00:25.668Z,10.85
2022-10-17T01:00:54.428Z,10.73
2022-10-17T01:01:08.539Z,11.40
2022-10-17T01:01:21.836Z,11.10
2022-10-17T01:01:35.240Z,11.07
2022-10-17T01:02:08.754Z,11.40
2022-10-17T01:02:23.719Z,11.00
2022-10-17T01:02:56.473Z,11.07
2022-10-17T01:03:14.602Z,10.80
2022-10-17T01:03:31.393Z,10.50
2022-10-17T01:03:46.356Z,10.95
2022-10-17T01:04:01.379Z,10.48
2022-10-17T01:04:34.124Z,10.88
2022-10-17T01:04:55.913Z,10.40
2022-10-17T01:05:28.851Z,11.27
2022-10-17T01:06:01.744Z,11.43
2022-10-17T01:06:17.079Z,11.70
2022-10-17T01:06:46.185Z,10.93
2022-10-17T01:06:59.192Z,10.93
2022-10-17T01:07:12.596Z,11.55
2022-10-17T01:07:26.848Z,11.90
2022-10-17T01:07:40.189Z,11.75
2022-10-17T01:07:53.341Z,10.18
2022-10-17T01:08:06.293Z,9.85
2022-10-17T01:08:19.097Z,10.27
2022-10-17T01:08:32.091Z,10.55
2022-10-17T01:08:45.134Z,10.73
2022-10-17T01:08:58.093Z,10.90
2022-10-17T01:09:30.997Z,11.38
2022-10-17T01:09:44.845Z,11.25
2022-10-17T01:09:59.832Z,10.95
2022-10-17T01:10:13.057Z,10.85
2022-10-17T01:10:30.163Z,11.38
2022-10-17T01:11:08.820Z,12.00
2022-10-17T01:12:11.440Z,12.70
2022-10-17T01:12:47.403Z,10.93
2022-10-17T01:13:24.343Z,12.55
2022-10-17T01:14:16.588Z,11.15
2022-10-17T01:14:42.528Z,12.02
2022-10-17T01:15:11.740Z,11.75
2022-10-17T01:15:46.838Z,11.85
2022-10-17T01:16:12.089Z,10.88
2022-10-17T01:16:27.114Z,11.63
2022-10-17T01:17:18.638Z,11.18
2022-10-17T01:17:37.038Z,11.95
2022-10-17T01:18:11.289Z,11.85
2022-10-17T01:18:57.309Z,11.05
2022-10-17T01:19:26.953Z,11.60
2022-10-17T01:20:21.127Z,12.02
2022-10-17T01:21:12.311Z,12.27
2022-10-17T01:21:36.601Z,12.23
2022-10-17T01:22:22.861Z,12.43
2022-10-17T01:22:39.146Z,12.15
2022-10-17T01:22:55.000Z,12.20
2022-10-17T01:23:36.035Z,10.45
2022-10-17T01:23:54.530Z,11.73
2022-10-17T01:24:49.471Z,11.85
2022-10-17T01:25:26.962Z,10.95
2022-10-17T01:26:06.223Z,12.10
2022-10-17T01:27:06.752Z,12.63
2022-10-17T01:28:12.298Z,12.30
2022-10-17T01:28:34.327Z,11.48
2022-10-17T01:29:18.705Z,11.93
2022-10-17T01:29:57.726Z,11.68
2022-10-17T01:30:45.459Z,12.25
2022-10-17T01:31:04.631Z,13.02
2022-10-17T01:31:19.857Z,12.18
2022-10-17T01:31:38.450Z,11.35
2022-10-17T01:32:15.555Z,11.80
2022-10-17T01:32:54.207Z,11.20
2022-10-17T01:33:12.610Z,11.10
2022-10-17T01:34:08.112Z,11.40
2022-10-17T02:01:06.089Z,12.23
2022-10-17T02:11:23.356Z,11.20
2022-10-17T02:11:37.454Z,11.38
2022-10-17T02:18:40.235Z,10.82
2022-10-17T02:18:58.998Z,12.30
2022-10-17T02:19:47.197Z,12.45
2022-10-17T02:20:04.134Z,11.23
2022-10-17T02:20:36.844Z,11.85
2022-10-17T02:20:59.433Z,11.40
2022-10-17T02:21:46.190Z,12.13
2022-10-17T02:22:18.507Z,11.63
2022-10-17T02:22:37.396Z,12.43
2022-10-17T02:23:02.856Z,12.63
2022-10-17T02:23:24.516Z,12.95
2022-10-17T02:23:57.726Z,13.23
2022-10-17T02:24:27.083Z,14.35
2022-10-17T02:25:03.789Z,13.60
2022-10-17T02:25:34.929Z,11.63
2022-10-17T02:25:55.753Z,12.20
2022-10-17T02:26:34.086Z,12.50
2022-10-17T02:26:56.595Z,11.55
2022-10-17T02:27:14.091Z,11.45
2022-10-17T02:27:52.804Z,12.82
2022-10-17T02:28:13.701Z,12.20
2022-10-17T02:28:35.600Z,12.32
2022-10-17T02:29:07.020Z,12.77
2022-10-17T02:29:44.866Z,12.70
2022-10-17T02:30:01.485Z,11.35
2022-10-17T02:30:17.903Z,11.12
2022-10-17T02:30:33.697Z,12.32
2022-10-17T02:30:59.168Z,12.98
2022-10-17T02:31:15.743Z,14.13
2022-10-17T02:31:42.627Z,13.82
2022-10-17T02:31:59.844Z,12.37
2022-10-17T02:32:17.856Z,12.65
2022-10-17T02:32:55.519Z,12.13
2022-10-17T02:33:12.351Z,12.48
2022-10-17T02:33:32.884Z,12.27
2022-10-17T02:33:49.713Z,12.02
2022-10-17T02:34:50.921Z,12.10
2022-10-17T02:35:05.553Z,11.77
2022-10-17T02:35:19.783Z,12.27
2022-10-17T02:35:51.901Z,12.05
2022-10-17T02:36:11.167Z,11.30
2022-10-17T02:36:26.701Z,11.25
2022-10-17T02:36:51.774Z,13.23
2022-10-17T02:37:07.583Z,12.55
2022-10-17T02:37:23.477Z,12.70
2022-10-17T02:37:36.404Z,12.75
2022-10-17T02:37:49.243Z,13.57
2022-10-17T02:38:02.483Z,13.50
2022-10-17T02:38:15.319Z,12.18
2022-10-17T02:38:28.362Z,13.10
2022-10-17T02:38:41.241Z,13.73
2022-10-17T02:38:55.042Z,12.23
2022-10-17T02:39:08.179Z,11.77
2022-10-17T02:39:40.502Z,12.37
2022-10-17T02:39:54.759Z,12.93
2022-10-17T02:40:07.863Z,11.98
2022-10-17T02:40:40.693Z,13.68
2022-10-17T02:40:53.982Z,14.23
2022-10-17T02:41:10.779Z,12.98
2022-10-17T02:41:23.768Z,12.37
2022-10-17T02:41:36.758Z,12.05
2022-10-17T02:41:50.996Z,12.05
2022-10-17T02:42:06.221Z,12.23
2022-10-17T02:42:20.077Z,12.13
2022-10-17T02:42:33.005Z,12.18
2022-10-17T02:42:45.979Z,12.68
2022-10-17T02:42:59.212Z,12.90
2022-10-17T02:43:21.227Z,13.05
2022-10-17T02:43:35.002Z,13.15
2022-10-17T02:43:49.007Z,13.05
2022-10-17T02:44:02.635Z,12.05
2022-10-17T02:44:15.491Z,11.82
2022-10-17T02:44:28.808Z,11.80
2022-10-17T02:44:44.667Z,12.00
2022-10-17T02:44:59.893Z,12.80
2022-10-17T02:45:13.330Z,12.37
2022-10-17T02:45:27.763Z,12.88
2022-10-17T02:45:40.603Z,13.50
2022-10-17T02:45:54.496Z,13.32
2022-10-17T02:46:08.197Z,13.40
2022-10-17T02:46:22.208Z,13.20
2022-10-17T02:46:36.287Z,12.75
2022-10-17T02:46:53.037Z,11.98
2022-10-17T02:47:24.640Z,13.85
2022-10-17T02:47:43.226Z,13.68
2022-10-17T02:48:26.815Z,12.77
2022-10-17T02:48:44.471Z,13.00
2022-10-17T02:49:07.985Z,12.13
2022-10-17T02:49:31.600Z,11.02
2022-10-17T02:49:47.546Z,11.85
2022-10-17T02:50:02.749Z,12.70
2022-10-17T02:50:15.673Z,12.95
2022-10-17T02:50:51.906Z,13.18
2022-10-17T02:51:22.997Z,11.70
2022-10-17T02:51:45.621Z,11.82
2022-10-17T02:52:04.710Z,12.10
2022-10-17T02:52:42.166Z,12.57
2022-10-17T02:53:15.849Z,11.45
2022-10-17T02:53:38.072Z,12.13
2022-10-17T02:54:21.097Z,12.95
2022-10-17T02:54:54.514Z,13.62
2022-10-17T02:55:14.364Z,13.00
2022-10-17T02:55:31.694Z,13.25
2022-10-17T02:55:59.141Z,12.68
2022-10-17T02:56:16.775Z,13.70
2022-10-17T02:56:55.565Z,13.40
2022-10-17T02:57:21.231Z,12.77
2022-10-17T02:57:42.534Z,12.20
2022-10-17T02:57:57.361Z,12.88
2022-10-17T02:58:20.001Z,14.52
2022-10-17T02:58:33.353Z,12.90
2022-10-17T02:58:48.608Z,13.13
2022-10-17T02:59:45.907Z,12.15
2022-10-17T03:00:04.959Z,13.57
2022-10-17T03:00:18.496Z,14.55
2022-10-17T03:00:31.326Z,13.40
2022-10-17T03:00:44.629Z,13.23
2022-10-17T03:00:58.364Z,12.30
2022-10-17T03:01:11.567Z,11.52
2022-10-17T03:01:24.603Z,12.32
2022-10-17T03:01:38.210Z,13.73
2022-10-17T03:01:51.648Z,15.70
2022-10-17T03:02:06.074Z,15.13
2022-10-17T03:02:19.998Z,12.80
2022-10-17T03:02:45.339Z,12.13
2022-10-17T03:03:03.016Z,12.20
2022-10-17T03:03:28.968Z,12.77
2022-10-17T03:03:42.068Z,14.73
2022-10-17T03:04:08.602Z,13.75
2022-10-17T03:04:21.892Z,11.45
2022-10-17T03:04:35.159Z,12.55
2022-10-17T03:04:48.371Z,13.77
2022-10-17T03:05:01.174Z,13.13
2022-10-17T03:05:20.012Z,12.85
2022-10-17T03:05:33.112Z,12.15
2022-10-17T03:05:45.914Z,12.30
2022-10-17T03:06:18.670Z,12.60
2022-10-17T03:06:31.558Z,12.18
2022-10-17T03:06:44.764Z,11.93
2022-10-17T03:06:57.644Z,11.60
2022-10-17T03:07:10.753Z,11.40
2022-10-17T03:07:23.672Z,11.43
2022-10-17T03:07:37.599Z,12.55
2022-10-17T03:07:51.701Z,12.65
2022-10-17T03:08:06.341Z,12.35
2022-10-17T03:08:20.082Z,12.25
2022-10-17T03:08:33.487Z,12.45
2022-10-17T03:08:46.421Z,12.25
2022-10-17T03:08:59.691Z,12.15
2022-10-17T03:09:12.513Z,11.95
2022-10-17T03:09:25.840Z,11.43
2022-10-17T03:09:39.145Z,12.02
2022-10-17T03:09:54.209Z,13.15
2022-10-17T03:10:08.180Z,13.50
2022-10-17T03:10:52.686Z,13.25
2022-10-17T03:11:05.582Z,12.95
2022-10-17T03:11:20.804Z,15.10
2022-10-17T03:11:34.420Z,15.98
2022-10-17T03:11:47.670Z,13.85
2022-10-17T03:12:00.595Z,13.43
2022-10-17T03:12:15.405Z,12.82
2022-10-17T03:12:28.490Z,13.04
2022-10-17T03:12:57.894Z,14.95
2022-10-17T03:13:10.948Z,14.13
2022-10-17T03:13:25.705Z,13.15
2022-10-17T03:13:39.900Z,13.40
2022-10-17T03:13:52.905Z,14.38
2022-10-17T03:14:07.012Z,13.43
2022-10-17T03:14:19.995Z,12.18
2022-10-17T03:14:32.815Z,12.37
2022-10-17T03:14:46.051Z,13.10
2022-10-17T03:14:58.853Z,13.93
2022-10-17T03:15:31.581Z,11.93
2022-10-17T03:15:49.641Z,11.68
2022-10-17T03:16:02.487Z,12.40
2022-10-17T03:16:17.539Z,13.18
2022-10-17T03:16:34.700Z,13.13
2022-10-17T03:16:47.537Z,13.13
2022-10-17T03:17:02.643Z,12.35
2022-10-17T03:17:15.539Z,12.80
2022-10-17T03:17:28.361Z,13.23
2022-10-17T03:17:43.201Z,11.57
2022-10-17T03:18:00.492Z,12.30
2022-10-17T03:18:13.713Z,12.45
2022-10-17T03:18:26.606Z,11.65
2022-10-17T03:19:10.805Z,12.15
2022-10-17T03:19:23.989Z,12.40
2022-10-17T03:19:36.823Z,11.90
2022-10-17T03:19:51.706Z,12.52
2022-10-17T03:20:05.633Z,12.90
2022-10-17T03:20:18.422Z,12.93
2022-10-17T03:20:47.090Z,14.43
2022-10-17T03:21:00.659Z,14.87
2022-10-17T03:21:13.668Z,13.55
2022-10-17T03:21:26.525Z,12.93
2022-10-17T03:21:39.811Z,13.65
2022-10-17T03:21:56.603Z,12.88
2022-10-17T03:22:09.439Z,12.75
2022-10-17T03:22:42.178Z,12.60
2022-10-17T03:22:55.081Z,12.13
2022-10-17T03:23:08.122Z,12.18
2022-10-17T03:23:21.322Z,12.98
2022-10-17T03:23:53.144Z,14.18
2022-10-17T03:24:07.240Z,13.98
2022-10-17T03:24:20.102Z,14.68
2022-10-17T03:24:33.028Z,14.63
2022-10-17T03:24:45.925Z,13.98
2022-10-17T03:24:59.885Z,13.30
2022-10-17T03:25:13.051Z,13.50
2022-10-17T03:25:26.138Z,13.07
2022-10-17T03:25:41.084Z,13.60
2022-10-17T03:25:54.907Z,13.90
2022-10-17T03:26:29.513Z,13.93
2022-10-17T03:26:44.294Z,14.25
2022-10-17T03:26:59.324Z,13.35
2022-10-17T03:27:12.646Z,13.35
2022-10-17T03:27:25.833Z,12.73
2022-10-17T03:27:39.210Z,12.68
2022-10-17T03:27:52.693Z,13.93
2022-10-17T03:28:06.020Z,13.48
2022-10-17T03:28:18.893Z,12.73
2022-10-17T03:28:31.754Z,13.10
2022-10-17T03:28:45.013Z,13.57
2022-10-17T03:28:58.428Z,13.68
2022-10-17T03:29:11.286Z,12.23
2022-10-17T03:29:24.644Z,12.25
2022-10-17T03:29:43.532Z,12.60
2022-10-17T03:29:56.824Z,13.77
2022-10-17T03:30:09.979Z,14.05
2022-10-17T03:30:42.737Z,13.48
2022-10-17T03:30:55.662Z,12.30
2022-10-17T03:31:14.692Z,12.25
2022-10-17T03:31:27.995Z,12.43
2022-10-17T03:31:41.236Z,12.18
2022-10-17T03:31:54.060Z,13.07
2022-10-17T03:32:07.204Z,13.90
2022-10-17T03:32:20.099Z,13.35
2022-10-17T03:32:34.011Z,12.37
2022-10-17T03:32:47.202Z,13.13
2022-10-17T03:33:01.092Z,13.50
2022-10-17T03:33:14.532Z,13.43
2022-10-17T03:33:47.263Z,13.45
2022-10-17T03:34:02.124Z,12.85
2022-10-17T03:34:17.721Z,13.62
2022-10-17T03:34:31.099Z,14.13
2022-10-17T03:34:43.940Z,12.55
2022-10-17T03:34:57.638Z,12.10
2022-10-17T03:35:29.540Z,13.23
2022-10-17T03:35:42.661Z,13.68
2022-10-17T03:35:55.604Z,13.88
2022-10-17T03:36:12.997Z,14.50
2022-10-17T03:36:26.180Z,13.93
2022-10-17T03:36:39.082Z,13.32
2022-10-17T03:36:52.003Z,13.68
2022-10-17T03:37:05.997Z,13.70
2022-10-17T03:37:23.486Z,13.75
2022-10-17T03:37:36.439Z,13.65
2022-10-17T03:37:51.407Z,13.88
2022-10-17T03:38:04.684Z,15.43
2022-10-17T03:38:18.357Z,14.80
2022-10-17T03:38:54.218Z,13.02
2022-10-17T03:39:08.159Z,12.18
2022-10-17T03:39:25.097Z,12.80
2022-10-17T03:39:37.959Z,13.35
2022-10-17T03:39:51.694Z,12.55
2022-10-17T03:40:05.294Z,12.90
2022-10-17T03:40:18.635Z,14.18
2022-10-17T03:40:35.424Z,14.48
2022-10-17T03:40:55.312Z,14.15
2022-10-17T03:41:08.699Z,13.30
2022-10-17T03:41:21.658Z,13.43
2022-10-17T03:42:05.646Z,15.32
2022-10-17T03:42:20.729Z,14.45
2022-10-17T03:42:34.484Z,13.27
2022-10-17T03:42:47.313Z,14.00
2022-10-17T03:43:00.184Z,13.98
2022-10-17T03:43:12.987Z,14.00
2022-10-17T03:43:34.446Z,13.57
2022-10-17T03:43:54.013Z,15.73
2022-10-17T03:44:26.806Z,15.88
2022-10-17T03:44:40.114Z,13.40
2022-10-17T03:44:54.095Z,15.02
2022-10-17T03:45:07.234Z,15.30
2022-10-17T03:45:20.657Z,15.80
2022-10-17T03:45:39.075Z,14.77
2022-10-17T03:45:51.956Z,13.57
2022-10-17T03:46:08.645Z,14.45
2022-10-17T03:46:21.811Z,14.32
2022-10-17T03:47:09.220Z,14.25
2022-10-17T03:47:24.858Z,14.02
2022-10-17T03:47:37.724Z,13.82
2022-10-17T03:48:01.206Z,15.82
2022-10-17T03:48:14.415Z,14.73
2022-10-17T03:48:28.277Z,14.38
2022-10-17T03:48:42.172Z,14.63
2022-10-17T03:48:55.403Z,13.60
2022-10-17T03:49:09.428Z,12.50
2022-10-17T03:49:22.238Z,12.63
2022-10-17T03:49:36.926Z,13.27
2022-10-17T03:49:57.728Z,13.70
2022-10-17T03:50:12.464Z,13.18
2022-10-17T03:50:27.577Z,13.77
2022-10-17T03:51:02.592Z,13.98
2022-10-17T03:51:15.715Z,14.60
2022-10-17T03:51:28.572Z,15.43
2022-10-17T03:51:41.475Z,14.32
2022-10-17T03:52:12.863Z,13.82
2022-10-17T03:52:26.269Z,12.77
2022-10-17T03:52:39.464Z,13.30
2022-10-17T03:52:52.444Z,12.82
2022-10-17T03:53:09.946Z,12.30
2022-10-17T03:53:24.786Z,12.68
2022-10-17T03:53:37.580Z,13.23
2022-10-17T03:53:50.592Z,12.98
2022-10-17T03:54:07.811Z,14.07
2022-10-17T03:54:22.654Z,14.90
2022-10-17T03:54:35.813Z,14.48
2022-10-17T03:54:50.472Z,14.20
2022-10-17T03:55:03.522Z,13.30
2022-10-17T03:55:34.397Z,13.82
2022-10-17T03:55:47.399Z,13.55
2022-10-17T04:26:46.673Z,12.63
2022-10-17T04:27:01.804Z,13.30
2022-10-17T04:27:15.651Z,13.65
2022-10-17T04:27:28.859Z,13.48
2022-10-17T04:27:49.654Z,14.32
2022-10-17T04:28:02.900Z,12.95
2022-10-17T04:28:16.928Z,12.05
2022-10-17T04:28:31.038Z,12.63
2022-10-17T04:28:44.158Z,14.18
2022-10-17T04:28:58.855Z,14.30
2022-10-17T04:29:11.950Z,14.23
2022-10-17T04:29:55.913Z,13.25
2022-10-17T04:30:10.027Z,12.10
2022-10-17T04:30:22.898Z,12.75
2022-10-17T04:30:42.352Z,14.55
2022-10-17T04:31:03.111Z,14.18
2022-10-17T04:31:17.481Z,13.80
2022-10-17T04:31:30.529Z,13.65
2022-10-17T04:31:43.583Z,15.45
2022-10-17T04:31:56.455Z,16.33
2022-10-17T04:32:11.407Z,14.40
2022-10-17T04:32:26.415Z,13.40
2022-10-17T04:32:40.328Z,13.23
2022-10-17T04:32:53.799Z,14.85
2022-10-17T04:33:07.744Z,15.77
2022-10-17T04:33:22.506Z,15.27
2022-10-17T04:33:49.952Z,14.25
2022-10-17T04:34:03.202Z,13.23
2022-10-17T04:34:16.711Z,13.40
2022-10-17T04:34:30.106Z,14.38
2022-10-17T04:34:43.245Z,14.27
2022-10-17T04:34:56.688Z,13.57
2022-10-17T04:35:29.417Z,13.52
2022-10-17T04:36:00.846Z,13.15
2022-10-17T04:36:19.360Z,15.15
2022-10-17T04:36:32.738Z,14.87
2022-10-17T04:36:47.129Z,15.45
2022-10-17T04:37:20.224Z,13.70
2022-10-17T04:37:52.977Z,15.10
2022-10-17T04:38:07.120Z,13.70
2022-10-17T04:38:21.234Z,12.90
2022-10-17T04:38:35.603Z,12.80
2022-10-17T04:38:48.491Z,12.88
2022-10-17T04:39:21.238Z,13.30
2022-10-17T04:39:54.469Z,13.35
2022-10-17T04:40:08.399Z,13.35
2022-10-17T04:40:21.312Z,13.18
2022-10-17T04:40:34.610Z,13.48
2022-10-17T04:40:47.576Z,14.65
2022-10-17T04:41:04.936Z,13.93
2022-10-17T04:41:27.349Z,13.90
2022-10-17T04:41:40.205Z,13.40
2022-10-17T04:41:53.256Z,13.88
2022-10-17T04:42:06.095Z,13.88
2022-10-17T04:42:18.925Z,12.75
2022-10-17T04:42:32.319Z,12.52
2022-10-17T04:42:45.374Z,13.40
2022-10-17T04:42:58.491Z,13.25
2022-10-17T04:43:11.285Z,13.00
2022-10-17T04:43:25.133Z,12.75
2022-10-17T04:43:38.331Z,12.57
2022-10-17T04:43:55.616Z,12.57
2022-10-17T04:44:30.867Z,12.85
2022-10-17T04:44:45.580Z,12.27
2022-10-17T04:44:59.252Z,12.00
2022-10-17T04:45:12.086Z,13.73
2022-10-17T04:46:12.414Z,14.75
2022-10-17T04:46:25.513Z,12.90
2022-10-17T04:46:38.414Z,12.73
2022-10-17T04:46:51.231Z,13.05
2022-10-17T04:47:04.065Z,13.18
2022-10-17T04:47:17.365Z,13.75
2022-10-17T04:47:38.312Z,13.43
2022-10-17T04:47:52.027Z,14.65
2022-10-17T05:25:25.960Z,14.10
2022-10-17T05:25:46.892Z,13.85
2022-10-17T05:25:59.862Z,13.73
2022-10-17T05:26:13.958Z,15.00
2022-10-17T05:26:26.883Z,14.52
2022-10-17T05:26:40.025Z,14.15
2022-10-17T05:27:13.420Z,13.32
2022-10-17T05:27:26.446Z,13.82
2022-10-17T05:27:39.313Z,13.52
2022-10-17T05:27:52.322Z,12.40
2022-10-17T05:28:05.443Z,11.57
2022-10-17T05:28:18.484Z,12.13
2022-10-17T05:28:31.554Z,12.50
2022-10-17T05:28:46.586Z,11.55
2022-10-17T05:29:03.131Z,12.05
2022-10-17T05:29:16.145Z,13.77
2022-10-17T05:29:48.877Z,12.63
2022-10-17T05:30:04.185Z,12.60
2022-10-17T05:30:20.970Z,12.63
2022-10-17T05:30:36.885Z,12.68
2022-10-17T05:31:08.448Z,12.55
2022-10-17T05:31:21.511Z,12.40
2022-10-17T05:31:34.731Z,12.88
2022-10-17T05:31:47.584Z,13.35
2022-10-17T05:32:18.490Z,14.60
2022-10-17T05:32:32.940Z,14.95
2022-10-17T05:32:54.603Z,13.75
2022-10-17T05:33:07.595Z,13.35
2022-10-17T05:33:20.649Z,13.25
2022-10-17T05:33:34.048Z,13.90
2022-10-17T05:33:46.950Z,14.02
2022-10-17T05:34:02.991Z,14.85
2022-10-17T05:34:16.253Z,14.57
2022-10-17T05:34:29.059Z,13.32
2022-10-17T05:35:04.262Z,12.93
2022-10-17T05:35:17.241Z,12.50
2022-10-17T05:35:30.385Z,12.98
2022-10-17T05:35:43.234Z,13.25
2022-10-17T05:35:56.452Z,12.60
2022-10-17T05:36:09.253Z,13.27
2022-10-17T05:36:41.995Z,13.20
2022-10-17T05:36:55.098Z,13.60
2022-10-17T05:37:08.584Z,14.40
2022-10-17T05:37:22.614Z,14.42
2022-10-17T05:37:35.451Z,14.65
2022-10-17T05:37:48.404Z,13.62
2022-10-17T05:38:01.710Z,12.77
2022-10-17T05:38:16.769Z,13.80
2022-10-17T05:38:31.760Z,14.63
2022-10-17T05:38:44.657Z,14.40
2022-10-17T05:38:57.465Z,14.43
2022-10-17T05:39:26.614Z,13.00
2022-10-17T05:39:39.815Z,13.50
2022-10-17T05:39:52.697Z,13.20
2022-10-17T05:40:06.063Z,13.80
2022-10-17T05:40:19.259Z,14.20
2022-10-17T05:40:32.352Z,13.55
2022-10-17T05:40:46.175Z,12.70
2022-10-17T05:41:00.535Z,12.52
2022-10-17T05:41:18.406Z,12.02
2022-10-17T05:41:31.197Z,12.13
2022-10-17T05:41:46.754Z,13.30
2022-10-17T05:41:59.666Z,13.43
2022-10-17T05:42:22.024Z,13.73
2022-10-17T05:42:35.453Z,14.27
2022-10-17T05:42:48.639Z,13.32
2022-10-17T05:43:01.484Z,12.50
2022-10-17T05:43:14.832Z,11.90
2022-10-17T05:43:47.602Z,11.85
2022-10-17T05:44:04.576Z,11.50
2022-10-17T05:44:18.603Z,12.48
2022-10-17T05:44:35.883Z,13.48
2022-10-17T05:44:49.791Z,13.68
2022-10-17T05:45:02.714Z,14.18
2022-10-17T05:45:16.076Z,13.88
2022-10-17T05:45:30.787Z,14.65
2022-10-17T05:45:43.726Z,14.70
2022-10-17T05:45:56.548Z,13.20
2022-10-17T05:46:09.796Z,14.45
2022-10-17T05:46:24.812Z,15.48
2022-10-17T05:46:37.859Z,13.93
2022-10-17T05:46:51.071Z,12.95
2022-10-17T05:47:04.739Z,12.75
2022-10-17T05:48:09.074Z,13.35
2022-10-17T05:48:22.467Z,13.05
2022-10-17T05:48:35.689Z,12.95
2022-10-17T05:48:49.224Z,13.48
2022-10-17T05:49:10.655Z,14.02
2022-10-17T05:49:44.973Z,13.85
2022-10-17T05:50:01.395Z,13.52
2022-10-17T05:50:14.553Z,12.88
2022-10-17T05:50:47.474Z,12.45
2022-10-17T05:51:09.653Z,11.77
2022-10-17T05:51:26.549Z,12.60
2022-10-17T05:51:41.654Z,13.07
2022-10-17T05:51:54.821Z,13.70
2022-10-17T05:52:07.642Z,13.10
2022-10-17T05:52:22.520Z,12.95
2022-10-17T05:52:35.721Z,13.30
2022-10-17T05:52:56.628Z,13.02
2022-10-17T05:53:33.680Z,14.27
2022-10-17T05:54:06.718Z,13.68
2022-10-17T05:54:22.078Z,13.55
2022-10-17T05:54:35.172Z,12.98
2022-10-17T05:54:48.631Z,13.45
2022-10-17T05:55:01.533Z,14.80
2022-10-17T05:55:15.286Z,13.68
2022-10-17T05:55:28.636Z,11.88
2022-10-17T05:55:41.985Z,12.18
2022-10-17T05:55:57.612Z,12.23
2022-10-17T05:56:11.490Z,12.07
2022-10-17T05:56:24.891Z,12.75
2022-10-17T05:56:42.598Z,13.48
2022-10-17T05:57:14.477Z,12.18
2022-10-17T05:57:27.323Z,12.73
2022-10-17T05:57:40.393Z,12.85
2022-10-17T05:57:54.067Z,12.37
2022-10-17T05:58:11.737Z,12.82
2022-10-17T05:58:49.116Z,12.68
2022-10-17T05:59:05.158Z,13.50
2022-10-17T05:59:22.212Z,14.32
2022-10-17T05:59:35.226Z,13.65
2022-10-17T05:59:48.410Z,13.20
2022-10-17T06:00:01.671Z,13.38
2022-10-17T06:00:14.887Z,13.32
2022-10-17T06:00:47.635Z,12.55
2022-10-17T06:01:06.214Z,13.15
2022-10-17T06:01:24.401Z,13.80
2022-10-17T06:01:37.322Z,13.27
2022-10-17T06:01:51.381Z,12.52
2022-10-17T06:02:04.813Z,13.20
2022-10-17T06:02:18.230Z,13.57
2022-10-17T06:02:32.590Z,13.77
2022-10-17T06:02:48.903Z,14.18
2022-10-17T06:03:03.984Z,13.20
2022-10-17T06:03:16.834Z,12.70
2022-10-17T06:03:30.716Z,12.20
2022-10-17T06:03:48.389Z,13.55
2022-10-17T06:04:32.513Z,12.48
2022-10-17T06:04:46.590Z,12.02
2022-10-17T06:04:59.409Z,12.93
2022-10-17T06:05:12.858Z,13.57
2022-10-17T06:05:26.176Z,13.68
2022-10-17T06:06:11.464Z,13.93
2022-10-17T06:06:24.327Z,13.80
2022-10-17T06:06:37.584Z,12.57
2022-10-17T06:06:50.908Z,12.55
2022-10-17T06:07:22.120Z,13.45
2022-10-17T06:07:35.894Z,12.48
2022-10-17T06:07:55.878Z,11.77
2022-10-17T06:08:12.800Z,13.27
2022-10-17T06:08:44.413Z,14.18
2022-10-17T06:08:57.753Z,13.27
2022-10-17T06:09:12.452Z,13.52
2022-10-17T06:09:25.374Z,12.80
2022-10-17T06:09:40.600Z,12.30
2022-10-17T06:09:54.538Z,13.07
2022-10-17T06:10:10.009Z,13.38
2022-10-17T06:10:24.279Z,12.70
2022-10-17T06:10:37.115Z,13.07
2022-10-17T06:10:51.864Z,15.05
2022-10-17T06:11:07.671Z,14.45
2022-10-17T06:11:23.028Z,12.88
2022-10-17T06:11:38.127Z,13.18
2022-10-17T06:12:10.878Z,12.70
2022-10-17T06:12:23.779Z,12.75
2022-10-17T06:12:57.581Z,12.82
2022-10-17T06:13:11.124Z,11.98
2022-10-17T06:13:34.623Z,13.98
2022-10-17T06:13:49.576Z,14.30
2022-10-17T06:14:03.330Z,12.70
2022-10-17T06:14:16.640Z,12.32
2022-10-17T06:14:29.502Z,12.85